KMSY/MSY METAR and TAF weather

Enter ICAO airport designator
Station Type Date Time Source
KMSY METAR 2022/08/13 10:53 UTC NOAA

KMSY 131053Z 14005KT 10SM FEW015 SCT026 BKN250 26/24 A2999 RMK AO2 SLP158 T02610244 $


Station Type Date Time Source
KMSY Decoded METAR 2022/08/13 10:53 UTC NOAA

NEW ORLEANS INTERNATIONAL AIRPORT, LA, United States (KMSY) 30-00N 90-15W 5M
Aug 13, 2022 - 06:53 AM EDT / 2022.08.13 1053 UTC
Wind: from the SE (140 degrees) at 6 MPH (5 KT):0
Visibility: 10 mile(s):0
Sky conditions: mostly cloudy
Temperature: 79.0 F (26.1 C)
Dew Point: 75.9 F (24.4 C)
Relative Humidity: 90%
Pressure (altimeter): 29.99 in. Hg (1015 hPa)
ob: KMSY 131053Z 14005KT 10SM FEW015 SCT026 BKN250 26/24 A2999 RMK AO2 SLP158 T02610244
cycle: 11

Station Type Date Time Source
KMSY TAF 2022/08/13 12:36 UTC NOAA

TAF KMSY 131134Z 1312/1418 14005KT P6SM SCT020 BKN250
FM131600 17008KT P6SM SHRA BKN025 BKN050
TEMPO 1318/1321 4SM TSRA BR BKN020CB
FM132300 22005KT P6SM VCSH SCT025 BKN050
FM140100 VRB04KT P6SM FEW250
FM141500 VRB04KT P6SM BKN020

Example: see airport list